Time;durP1;ratioP1;P1;durP2;ratioP2;P2;SDS_P1;SDS_P2;PMS_P1;PMS_P2;Temp;Humidity;BMP_temperature;BMP_pressure;BME280_temperature;BME280_humidity;BME280_pressure;Samples;Min_cycle;Max_cycle;Signal;HPM_P1;HPM_P2
2023/03/31 00:02:21;;;;;;;19.50;3.25;;;10.10;99.90;;;;;;5073125;28;20056;-74
2023/03/31 00:04:51;;;;;;;21.48;3.85;;;10.10;99.90;;;;;;5072906;28;20463;-74
2023/03/31 00:07:23;;;;;;;19.63;3.63;;;10.20;99.90;;;;;;5075559;28;20123;-74
2023/03/31 00:09:53;;;;;;;13.77;3.35;;;10.30;99.90;;;;;;5074210;28;20064;-74
2023/03/31 00:12:20;;;;;;;20.10;4.05;;;10.30;99.90;;;;;;5073555;28;20147;-75
2023/03/31 00:14:46;;;;;;;25.15;4.40;;;10.40;99.90;;;;;;5088727;28;20119;-74
2023/03/31 00:17:11;;;;;;;18.50;3.47;;;10.40;99.90;;;;;;5092328;28;20127;-75
2023/03/31 00:19:38;;;;;;;20.17;3.30;;;10.40;99.90;;;;;;5092742;28;20076;-75
2023/03/31 00:22:04;;;;;;;23.70;4.28;;;10.40;99.90;;;;;;5087272;28;20483;-74
2023/03/31 00:24:31;;;;;;;21.02;4.95;;;10.40;99.90;;;;;;5056001;28;20090;-74
2023/03/31 00:26:58;;;;;;;13.63;3.15;;;10.40;99.90;;;;;;5080550;28;20056;-75
2023/03/31 00:29:25;;;;;;;16.88;3.15;;;10.40;99.90;;;;;;5056142;28;20048;-74
2023/03/31 00:31:51;;;;;;;18.17;3.47;;;10.30;99.90;;;;;;5072233;28;20110;-75
2023/03/31 00:34:16;;;;;;;17.17;3.38;;;10.30;99.90;;;;;;5082122;28;20337;-74
2023/03/31 00:36:46;;;;;;;16.58;3.20;;;10.20;99.90;;;;;;5086615;28;20051;-74
2023/03/31 00:39:14;;;;;;;14.73;2.85;;;10.20;99.90;;;;;;5072148;28;20104;-75
2023/03/31 00:41:40;;;;;;;18.83;3.70;;;10.20;99.90;;;;;;5076673;28;20039;-74
2023/03/31 00:44:17;;;;;;;;;;;10.20;99.90;;;;;;5092848;28;20118;-74
2023/03/31 00:46:54;;;;;;;16.73;3.47;;;10.20;99.90;;;;;;5085456;28;20286;-75
2023/03/31 00:49:29;;;;;;;13.15;2.67;;;10.10;99.90;;;;;;5072371;28;20056;-74
2023/03/31 00:52:06;;;;;;;12.10;2.40;;;10.00;99.90;;;;;;5072326;28;20052;-74
2023/03/31 00:54:35;;;;;;;12.65;2.63;;;10.00;99.90;;;;;;5054811;28;20047;-74
2023/03/31 00:57:05;;;;;;;15.68;3.08;;;10.00;99.90;;;;;;5082837;28;20046;-74
2023/03/31 00:59:37;;;;;;;15.40;3.50;;;10.00;99.90;;;;;;5077528;28;20036;-74
2023/03/31 01:02:03;;;;;;;15.88;3.42;;;10.00;99.90;;;;;;5077012;28;20064;-74
2023/03/31 01:04:34;;;;;;;16.80;3.25;;;9.90;99.90;;;;;;5087545;28;20043;-74
2023/03/31 01:07:11;;;;;;;17.05;3.42;;;9.80;99.90;;;;;;5085247;28;20043;-75
2023/03/31 01:09:38;;;;;;;16.92;3.13;;;9.80;99.90;;;;;;5058135;28;20439;-75
2023/03/31 01:12:07;;;;;;;15.02;2.72;;;9.80;99.90;;;;;;5074787;28;20420;-75
2023/03/31 01:14:33;;;;;;;16.75;3.35;;;9.80;99.90;;;;;;5071789;28;20044;-75
2023/03/31 01:16:59;;;;;;;15.60;3.40;;;9.80;99.90;;;;;;5071170;28;20032;-75
2023/03/31 01:19:40;;;;;;;19.05;3.25;;;9.70;99.90;;;;;;5072854;28;20101;-75
2023/03/31 01:22:20;;;;;;;17.13;3.50;;;9.80;99.90;;;;;;5085809;28;20529;-76
2023/03/31 01:25:13;;;;;;;14.45;3.25;;;9.80;99.90;;;;;;5071200;28;20045;-75
2023/03/31 01:27:55;;;;;;;14.32;2.95;;;9.80;99.90;;;;;;5055285;28;20041;-75
2023/03/31 01:30:47;;;;;;;19.15;3.38;;;9.80;99.90;;;;;;5070870;28;20053;-75
2023/03/31 01:33:33;;;;;;;15.30;3.33;;;9.80;99.90;;;;;;5054407;28;20094;-76
2023/03/31 01:36:17;;;;;;;15.65;3.55;;;9.70;99.90;;;;;;5070725;28;20496;-76
2023/03/31 01:38:58;;;;;;;14.02;2.97;;;9.70;99.90;;;;;;5070821;28;20032;-75
2023/03/31 01:41:56;;;;;;;12.80;3.22;;;9.70;99.90;;;;;;5056422;28;20118;-75
2023/03/31 01:44:29;;;;;;;16.45;2.67;;;9.60;99.90;;;;;;5060390;28;20832;-74
2023/03/31 01:47:16;;;;;;;15.02;3.05;;;9.60;99.90;;;;;;5071270;28;20032;-74
2023/03/31 01:50:05;;;;;;;16.63;3.40;;;9.60;99.90;;;;;;5088032;28;20119;-74
2023/03/31 01:52:43;;;;;;;10.55;2.83;;;9.60;99.90;;;;;;5081654;28;20120;-74
2023/03/31 01:55:32;;;;;;;11.88;2.80;;;9.60;99.90;;;;;;5090067;28;20050;-74
2023/03/31 01:58:25;;;;;;;14.30;2.92;;;9.60;99.90;;;;;;5089490;28;20055;-74
2023/03/31 02:01:29;;;;;;;13.65;2.45;;;9.50;99.90;;;;;;5071363;28;20117;-74
2023/03/31 02:03:59;;;;;;;16.73;2.95;;;9.50;99.90;;;;;;5089555;28;20044;-74
2023/03/31 02:06:30;;;;;;;10.50;2.85;;;9.50;99.90;;;;;;5090215;28;20040;-74
2023/03/31 02:09:01;;;;;;;8.95;2.67;;;9.50;99.90;;;;;;5084445;28;20040;-74
2023/03/31 02:11:29;;;;;;;14.02;3.22;;;9.50;99.90;;;;;;5069445;28;20444;-74
2023/03/31 02:14:01;;;;;;;9.88;2.60;;;9.50;99.90;;;;;;5076521;28;20040;-75
2023/03/31 02:16:31;;;;;;;13.25;2.83;;;9.50;99.90;;;;;;5078745;28;20044;-74
2023/03/31 02:19:04;;;;;;;13.50;2.97;;;9.50;99.90;;;;;;5075457;28;20044;-75
2023/03/31 02:21:36;;;;;;;11.60;2.45;;;9.50;99.90;;;;;;5090180;28;20082;-74
2023/03/31 02:24:06;;;;;;;11.32;2.60;;;9.50;99.90;;;;;;5083705;28;20372;-75
2023/03/31 02:26:40;;;;;;;9.95;2.45;;;9.50;99.90;;;;;;5069958;28;20067;-74
2023/03/31 02:29:06;;;;;;;10.10;2.25;;;9.40;99.90;;;;;;5075227;28;20090;-74
2023/03/31 02:31:48;;;;;;;12.30;2.42;;;9.50;99.90;;;;;;5072977;28;20083;-74
2023/03/31 02:34:14;;;;;;;13.35;2.92;;;9.50;99.90;;;;;;5056096;28;20036;-74
2023/03/31 02:36:42;;;;;;;8.85;2.17;;;9.50;99.90;;;;;;5069822;28;20040;-74
2023/03/31 02:39:12;;;;;;;13.75;2.40;;;9.50;99.90;;;;;;5074246;28;20044;-75
2023/03/31 02:41:37;;;;;;;12.70;2.80;;;9.60;99.90;;;;;;5073061;28;20060;-74
2023/03/31 02:44:03;;;;;;;8.18;2.13;;;9.60;99.90;;;;;;5086550;28;20044;-74
2023/03/31 02:46:30;;;;;;;9.73;2.22;;;9.60;99.90;;;;;;5069544;28;20492;-74
2023/03/31 02:48:57;;;;;;;12.85;2.83;;;9.60;99.90;;;;;;5071021;28;20052;-75
2023/03/31 02:51:40;;;;;;;9.23;2.25;;;9.70;99.90;;;;;;5070837;28;20044;-74
2023/03/31 02:54:18;;;;;;;12.13;2.10;;;9.70;99.90;;;;;;5069594;28;20036;-74
2023/03/31 02:57:17;;;;;;;10.48;2.50;;;9.70;99.90;;;;;;5053347;28;20438;-75
2023/03/31 03:00:07;;;;;;;13.80;2.85;;;9.70;99.90;;;;;;5081625;28;20118;-75
2023/03/31 03:02:35;;;;;;;11.45;3.03;;;9.70;99.90;;;;;;5089600;28;20150;-75
2023/03/31 03:05:21;;;;;;;9.40;2.47;;;9.80;99.90;;;;;;5084753;28;20044;-75
2023/03/31 03:07:59;;;;;;;15.25;3.00;;;9.80;99.90;;;;;;5074344;28;20127;-74
2023/03/31 03:10:43;;;;;;;9.02;2.30;;;9.80;99.90;;;;;;5088384;28;20048;-75
2023/03/31 03:13:18;;;;;;;10.63;2.33;;;9.70;99.90;;;;;;5089629;28;20127;-75
2023/03/31 03:15:59;;;;;;;12.48;2.72;;;9.70;99.90;;;;;;5069404;28;20041;-75
2023/03/31 03:18:25;;;;;;;14.85;3.20;;;9.70;99.90;;;;;;5058784;28;20062;-75
2023/03/31 03:20:51;;;;;;;11.25;2.33;;;9.70;99.90;;;;;;5057508;28;20085;-75
2023/03/31 03:23:17;;;;;;;6.55;1.67;;;9.70;99.90;;;;;;5091487;28;20044;-74
2023/03/31 03:25:43;;;;;;;8.93;1.92;;;9.60;99.90;;;;;;5074272;28;20056;-74
2023/03/31 03:28:09;;;;;;;;;;;9.60;99.90;;;;;;5073215;28;20132;-74
2023/03/31 03:30:35;;;;;;;6.35;1.83;;;9.60;99.90;;;;;;5073368;28;20011;-74
2023/03/31 03:33:02;;;;;;;9.30;2.03;;;9.60;99.90;;;;;;5056619;28;20395;-74
2023/03/31 03:35:28;;;;;;;7.88;1.85;;;9.60;99.90;;;;;;5071155;28;20047;-74
2023/03/31 03:37:53;;;;;;;8.90;2.00;;;9.60;99.90;;;;;;5086955;28;20051;-74
2023/03/31 03:40:19;;;;;;;7.22;1.63;;;9.60;99.90;;;;;;5086473;28;20047;-74
2023/03/31 03:42:45;;;;;;;8.00;1.77;;;9.50;99.90;;;;;;5056198;28;20059;-74
2023/03/31 03:45:10;;;;;;;7.60;1.95;;;9.50;99.90;;;;;;5074891;28;20399;-74
2023/03/31 03:47:36;;;;;;;7.43;1.77;;;9.60;99.90;;;;;;5080323;28;20041;-75
2023/03/31 03:50:03;;;;;;;7.00;2.03;;;9.50;99.90;;;;;;5083733;28;20056;-75
2023/03/31 03:52:29;;;;;;;6.05;1.80;;;9.60;99.90;;;;;;5081778;28;20048;-75
2023/03/31 03:54:54;;;;;;;6.88;1.70;;;9.50;99.90;;;;;;5093422;28;20036;-74
2023/03/31 03:57:20;;;;;;;8.85;1.90;;;9.50;99.90;;;;;;5074030;28;20036;-74
2023/03/31 03:59:46;;;;;;;6.20;1.60;;;9.60;99.90;;;;;;5061722;28;20064;-74
2023/03/31 04:02:12;;;;;;;5.97;1.88;;;9.60;99.90;;;;;;5094005;28;20075;-74
2023/03/31 04:04:37;;;;;;;5.40;1.85;;;9.60;99.90;;;;;;5079029;28;20595;-74
2023/03/31 04:07:03;;;;;;;7.88;2.03;;;9.60;99.90;;;;;;5092753;28;20122;-74
2023/03/31 04:09:29;;;;;;;9.70;2.50;;;9.70;99.90;;;;;;5092091;28;20482;-74
2023/03/31 04:11:55;;;;;;;7.40;2.15;;;9.70;99.90;;;;;;5092873;28;20081;-75
2023/03/31 04:14:21;;;;;;;6.15;2.15;;;9.70;99.90;;;;;;5077547;28;20056;-75
2023/03/31 04:16:47;;;;;;;7.13;1.88;;;9.80;99.90;;;;;;5072525;28;20041;-73
2023/03/31 04:19:16;;;;;;;7.28;2.17;;;9.80;99.90;;;;;;5072716;28;20044;-75
2023/03/31 04:21:44;;;;;;;7.18;2.20;;;9.80;99.90;;;;;;5086756;28;20048;-74
2023/03/31 04:24:14;;;;;;;6.35;2.13;;;9.80;99.90;;;;;;5092433;28;20048;-74
2023/03/31 04:26:44;;;;;;;7.43;2.67;;;9.80;99.90;;;;;;5072536;28;20055;-74
2023/03/31 04:29:11;;;;;;;6.72;2.63;;;9.80;99.90;;;;;;5072593;28;20048;-75
2023/03/31 04:31:41;;;;;;;5.25;1.70;;;9.80;99.90;;;;;;5082188;28;20050;-74
2023/03/31 04:34:12;;;;;;;5.70;2.00;;;9.80;99.90;;;;;;5091566;28;20044;-74
2023/03/31 04:36:41;;;;;;;8.10;1.98;;;9.80;99.90;;;;;;5063901;28;20042;-73
2023/03/31 04:39:11;;;;;;;6.78;2.20;;;9.90;99.90;;;;;;5079979;28;20031;-73
2023/03/31 04:41:37;;;;;;;8.73;2.90;;;9.80;99.90;;;;;;5077099;28;20144;-73
2023/03/31 04:44:03;;;;;;;7.63;3.05;;;9.90;99.90;;;;;;5078500;28;20135;-74
2023/03/31 04:46:28;;;;;;;5.75;2.13;;;9.90;99.90;;;;;;5085891;28;20130;-74
2023/03/31 04:48:54;;;;;;;8.10;2.58;;;9.80;99.90;;;;;;5088458;28;20090;-74
2023/03/31 04:51:20;;;;;;;5.60;2.28;;;9.90;99.90;;;;;;5075164;28;20089;-75
2023/03/31 04:53:46;;;;;;;6.05;2.70;;;9.80;99.90;;;;;;5082956;28;20044;-75
2023/03/31 04:56:12;;;;;;;;;;;9.90;99.90;;;;;;5081731;28;20082;-75
2023/03/31 04:58:37;;;;;;;7.50;3.20;;;9.90;99.90;;;;;;5075694;28;19959;-75
2023/03/31 05:01:06;;;;;;;6.78;3.05;;;9.80;99.90;;;;;;5074395;28;20059;-76
2023/03/31 05:03:33;;;;;;;6.45;3.13;;;9.90;99.90;;;;;;5067784;28;20056;-75
2023/03/31 05:05:59;;;;;;;8.77;3.45;;;9.80;99.90;;;;;;5079488;28;20040;-75
2023/03/31 05:08:25;;;;;;;9.75;3.63;;;9.90;99.90;;;;;;5077017;28;20411;-75
2023/03/31 05:10:52;;;;;;;7.88;2.95;;;9.90;99.90;;;;;;5083963;28;20498;-75
2023/03/31 05:13:17;;;;;;;;;;;9.90;99.90;;;;;;5081152;28;20040;-75
2023/03/31 05:15:49;;;;;;;7.07;2.85;;;9.80;99.90;;;;;;5076528;28;19985;-74
2023/03/31 05:18:15;;;;;;;6.57;2.30;;;10.00;99.90;;;;;;5081146;28;20040;-75
2023/03/31 05:20:41;;;;;;;6.28;2.20;;;9.80;99.90;;;;;;5065629;28;20135;-75
2023/03/31 05:23:06;;;;;;;5.88;2.70;;;10.00;99.90;;;;;;5071541;28;20083;-75
2023/03/31 05:25:33;;;;;;;7.07;2.70;;;9.90;99.90;;;;;;5072881;28;20044;-75
2023/03/31 05:27:59;;;;;;;7.55;2.58;;;9.90;99.90;;;;;;5083031;28;20036;-75
2023/03/31 05:30:25;;;;;;;7.03;2.65;;;10.00;99.90;;;;;;5080317;28;20051;-76
2023/03/31 05:32:52;;;;;;;6.07;2.40;;;10.00;99.90;;;;;;5075510;28;20067;-75
2023/03/31 05:35:17;;;;;;;;;;;9.90;99.90;;;;;;5079800;28;20054;-75
2023/03/31 05:37:43;;;;;;;4.38;2.20;;;10.00;99.90;;;;;;5059876;28;20391;-75
2023/03/31 05:40:09;;;;;;;6.72;2.42;;;10.10;99.90;;;;;;5084570;28;20028;-75
2023/03/31 05:42:36;;;;;;;4.93;2.75;;;10.10;99.90;;;;;;5079423;28;20037;-75
2023/03/31 05:45:01;;;;;;;;;;;10.10;99.90;;;;;;5079169;28;20398;-75
2023/03/31 05:47:27;;;;;;;6.40;2.22;;;10.00;99.90;;;;;;5064740;28;19965;-75
2023/03/31 05:49:53;;;;;;;3.83;1.75;;;10.00;99.90;;;;;;5080556;28;20357;-74
2023/03/31 05:52:19;;;;;;;5.18;1.98;;;10.10;99.90;;;;;;5080308;28;20047;-76
2023/03/31 05:54:44;;;;;;;4.93;1.95;;;10.10;99.90;;;;;;5080992;28;20043;-75
2023/03/31 05:57:10;;;;;;;4.63;2.05;;;10.10;99.90;;;;;;5061239;28;20404;-76
2023/03/31 05:59:37;;;;;;;6.55;2.28;;;10.00;99.90;;;;;;5067809;28;20062;-75
2023/03/31 06:02:03;;;;;;;8.10;2.65;;;10.20;99.90;;;;;;5072273;28;20520;-76
2023/03/31 06:04:31;;;;;;;6.70;2.65;;;10.20;99.90;;;;;;5072704;28;20083;-76
2023/03/31 06:06:57;;;;;;;6.53;2.30;;;10.20;99.90;;;;;;5075328;28;20197;-76
2023/03/31 06:09:23;;;;;;;6.15;2.22;;;10.20;99.90;;;;;;5090282;28;20163;-76
2023/03/31 06:11:49;;;;;;;3.83;1.73;;;10.10;99.90;;;;;;5075309;28;20049;-77
2023/03/31 06:14:15;;;;;;;4.65;1.67;;;10.00;99.90;;;;;;5070109;28;20051;-74
2023/03/31 06:16:40;;;;;;;5.00;2.05;;;10.10;99.90;;;;;;5103752;28;20173;-76
2023/03/31 06:19:06;;;;;;;4.03;1.77;;;10.00;99.90;;;;;;5053284;28;20075;-74
2023/03/31 06:21:32;;;;;;;3.60;1.50;;;10.10;99.90;;;;;;5088277;28;20131;-75
2023/03/31 06:23:59;;;;;;;5.97;1.98;;;10.10;99.90;;;;;;5079934;28;20506;-75
2023/03/31 06:26:26;;;;;;;5.78;1.83;;;10.10;99.90;;;;;;5075165;28;20058;-75
2023/03/31 06:28:52;;;;;;;4.75;1.65;;;10.20;99.90;;;;;;5074060;28;20048;-74
2023/03/31 06:31:21;;;;;;;5.65;2.20;;;10.10;99.90;;;;;;5076614;28;20036;-75
2023/03/31 06:33:47;;;;;;;6.28;1.88;;;10.00;99.90;;;;;;5088101;28;20391;-74
2023/03/31 06:36:15;;;;;;;5.40;1.85;;;10.10;99.90;;;;;;5075817;28;20051;-75
2023/03/31 06:38:41;;;;;;;4.65;1.80;;;10.10;99.90;;;;;;5070105;28;20079;-74
2023/03/31 06:41:10;;;;;;;4.53;1.60;;;10.10;99.90;;;;;;5076453;28;20409;-75
2023/03/31 06:43:35;;;;;;;3.53;1.52;;;10.10;99.90;;;;;;5075957;28;20066;-75
2023/03/31 06:46:01;;;;;;;4.70;1.50;;;10.30;99.90;;;;;;5069622;28;20488;-75
2023/03/31 06:48:27;;;;;;;3.80;1.50;;;10.10;99.90;;;;;;5073806;28;20472;-75
2023/03/31 06:50:57;;;;;;;5.03;1.88;;;10.10;99.90;;;;;;5056708;28;20043;-75
2023/03/31 06:53:23;;;;;;;2.80;1.30;;;10.10;99.90;;;;;;5073833;28;20040;-74
2023/03/31 06:55:48;;;;;;;5.00;2.33;;;10.20;99.90;;;;;;5071803;28;20043;-74
2023/03/31 06:58:14;;;;;;;3.45;1.65;;;10.30;99.90;;;;;;5091277;28;20040;-74
2023/03/31 07:00:40;;;;;;;5.35;1.90;;;10.20;99.90;;;;;;5082230;28;20060;-74
2023/03/31 07:03:07;;;;;;;3.60;1.67;;;10.20;99.90;;;;;;5081718;28;20127;-74
2023/03/31 07:05:33;;;;;;;2.33;1.20;;;10.20;99.90;;;;;;5078678;28;20713;-74
2023/03/31 07:08:00;;;;;;;3.47;1.70;;;10.20;99.90;;;;;;5061757;28;20059;-74
2023/03/31 07:10:27;;;;;;;;;;;10.10;99.90;;;;;;5071884;28;20119;-75
2023/03/31 07:12:53;;;;;;;5.18;1.67;;;10.20;99.90;;;;;;5081229;28;20339;-74
2023/03/31 07:15:19;;;;;;;3.30;1.48;;;10.20;99.90;;;;;;5078947;28;20119;-74
2023/03/31 07:17:45;;;;;;;5.38;1.75;;;10.20;99.90;;;;;;5080821;28;20372;-74
2023/03/31 07:20:13;;;;;;;3.53;1.85;;;10.10;99.90;;;;;;5079392;28;20094;-74
2023/03/31 07:22:43;;;;;;;4.15;1.70;;;10.30;99.90;;;;;;5082542;28;20089;-74
2023/03/31 07:25:11;;;;;;;2.45;1.27;;;10.10;99.90;;;;;;5082731;28;20544;-75
2023/03/31 07:27:37;;;;;;;2.72;1.30;;;10.10;99.90;;;;;;5070584;28;20040;-75
2023/03/31 07:30:05;;;;;;;1.83;1.13;;;10.20;99.90;;;;;;5069893;28;20502;-75
2023/03/31 07:32:32;;;;;;;4.22;1.30;;;10.40;99.90;;;;;;5084026;28;20127;-75
2023/03/31 07:34:57;;;;;;;4.47;1.60;;;10.20;99.90;;;;;;5061982;28;20101;-75
2023/03/31 07:37:23;;;;;;;6.00;1.70;;;10.40;99.90;;;;;;5075506;28;20048;-75
2023/03/31 07:39:49;;;;;;;3.42;1.42;;;10.20;99.90;;;;;;5083181;28;20051;-75
2023/03/31 07:42:15;;;;;;;3.28;1.38;;;10.50;99.90;;;;;;5092499;28;20091;-75
2023/03/31 07:44:41;;;;;;;4.97;1.40;;;10.20;99.90;;;;;;5078719;28;20051;-75
2023/03/31 07:47:06;;;;;;;2.30;1.23;;;10.40;99.90;;;;;;5077972;28;20041;-74
2023/03/31 07:49:33;;;;;;;3.50;1.50;;;10.20;99.90;;;;;;5078102;28;20201;-75
2023/03/31 07:51:59;;;;;;;3.03;1.20;;;10.30;99.90;;;;;;5070165;28;20113;-74
2023/03/31 07:54:25;;;;;;;3.85;1.40;;;10.30;99.90;;;;;;5088511;28;20036;-75
2023/03/31 07:56:52;;;;;;;3.90;1.80;;;10.40;99.90;;;;;;5075735;28;20056;-74
2023/03/31 07:59:18;;;;;;;4.30;1.80;;;10.40;99.90;;;;;;5077713;28;20080;-74
2023/03/31 08:01:44;;;;;;;2.90;1.15;;;10.30;99.90;;;;;;5063217;28;20456;-75
2023/03/31 08:04:11;;;;;;;4.93;1.60;;;10.30;99.90;;;;;;5073286;28;20122;-75
2023/03/31 08:06:37;;;;;;;2.50;1.27;;;10.50;99.90;;;;;;5079880;28;20043;-74
2023/03/31 08:09:05;;;;;;;4.15;1.48;;;10.20;99.90;;;;;;5077669;28;20039;-74
2023/03/31 08:11:31;;;;;;;3.97;1.52;;;10.50;99.90;;;;;;5084306;28;20149;-74
2023/03/31 08:13:57;;;;;;;3.35;1.38;;;10.20;99.90;;;;;;5077611;28;20080;-75
2023/03/31 08:16:23;;;;;;;2.15;1.10;;;10.20;99.90;;;;;;5089070;28;20559;-75
2023/03/31 08:18:49;;;;;;;2.33;1.10;;;10.20;99.90;;;;;;5073087;28;20037;-74
2023/03/31 08:21:15;;;;;;;3.90;1.50;;;10.40;99.90;;;;;;5080303;28;20048;-74
2023/03/31 08:23:41;;;;;;;4.07;1.23;;;10.20;99.90;;;;;;5073051;28;20044;-75
2023/03/31 08:26:20;;;;;;;3.08;1.00;;;10.20;99.90;;;;;;5055136;28;20513;-75
2023/03/31 08:28:49;;;;;;;2.80;1.00;;;10.20;99.90;;;;;;5079756;28;20040;-75
2023/03/31 08:31:17;;;;;;;0.85;0.70;;;10.40;99.90;;;;;;5080442;28;20059;-75
2023/03/31 08:33:43;;;;;;;2.25;0.80;;;10.30;99.90;;;;;;5073934;28;20048;-75
2023/03/31 08:36:10;;;;;;;3.72;1.23;;;10.30;99.90;;;;;;5075699;28;20147;-75
2023/03/31 08:38:40;;;;;;;4.53;1.30;;;10.40;99.90;;;;;;5058052;28;20048;-75
2023/03/31 08:41:27;;;;;;;3.03;1.33;;;10.50;99.90;;;;;;5088885;28;20127;-75
2023/03/31 08:43:55;;;;;;;2.80;0.95;;;10.40;99.90;;;;;;5083028;28;20093;-75
2023/03/31 08:46:21;;;;;;;2.95;1.20;;;10.30;99.90;;;;;;5074231;28;20070;-75
2023/03/31 08:48:53;;;;;;;3.60;1.40;;;10.60;99.90;;;;;;5081227;28;20040;-75
2023/03/31 08:51:38;;;;;;;2.88;1.30;;;10.40;99.90;;;;;;5086364;28;20131;-74
2023/03/31 08:54:14;;;;;;;2.38;1.23;;;10.50;99.90;;;;;;5074086;28;20431;-75
2023/03/31 08:56:43;;;;;;;1.90;1.10;;;10.40;99.90;;;;;;5062499;28;20040;-75
2023/03/31 08:59:17;;;;;;;3.50;1.33;;;10.50;99.90;;;;;;5075341;28;20036;-74
2023/03/31 09:02:02;;;;;;;4.78;1.60;;;10.70;99.90;;;;;;5056365;28;20463;-74
2023/03/31 09:04:43;;;;;;;3.15;1.30;;;10.70;99.90;;;;;;5066740;28;20044;-74
2023/03/31 09:07:23;;;;;;;5.35;1.50;;;10.70;99.90;;;;;;5087263;28;20047;-75
2023/03/31 09:09:55;;;;;;;4.03;1.35;;;10.60;99.90;;;;;;5091212;28;20048;-74
2023/03/31 09:12:45;;;;;;;2.70;1.40;;;10.60;99.90;;;;;;5082866;28;20079;-74
2023/03/31 09:15:31;;;;;;;4.57;1.63;;;10.80;99.90;;;;;;5081398;28;20590;-75
2023/03/31 09:18:02;;;;;;;5.65;1.70;;;10.90;99.90;;;;;;5083028;28;20032;-75
2023/03/31 09:20:35;;;;;;;5.97;1.83;;;10.70;99.90;;;;;;5072795;28;20042;-75
2023/03/31 09:23:15;;;;;;;5.20;1.77;;;10.70;99.90;;;;;;5079690;28;20047;-75
2023/03/31 09:25:43;;;;;;;5.40;1.77;;;10.90;99.90;;;;;;5072662;28;20053;-75
2023/03/31 09:28:31;;;;;;;4.18;1.50;;;10.90;99.90;;;;;;5077436;28;20056;-75
2023/03/31 09:30:57;;;;;;;4.35;1.80;;;10.70;99.90;;;;;;5071568;28;20090;-75
2023/03/31 09:33:30;;;;;;;5.22;1.67;;;10.90;99.90;;;;;;5064468;28;20118;-75
2023/03/31 09:35:57;;;;;;;6.50;1.90;;;11.00;99.90;;;;;;5071788;28;20094;-75
2023/03/31 09:38:23;;;;;;;5.00;1.50;;;10.80;99.90;;;;;;5083458;28;20044;-75
2023/03/31 09:40:49;;;;;;;3.75;1.75;;;11.10;99.90;;;;;;5078718;28;20076;-75
2023/03/31 09:43:22;;;;;;;6.65;1.90;;;11.10;99.90;;;;;;5073279;28;20084;-75
2023/03/31 09:45:48;;;;;;;4.53;1.60;;;11.10;99.90;;;;;;5086676;28;20399;-75
2023/03/31 09:48:19;;;;;;;3.85;1.52;;;11.10;99.90;;;;;;5083075;28;20290;-75
2023/03/31 09:50:57;;;;;;;2.47;1.20;;;11.30;99.90;;;;;;5081328;28;20208;-75
2023/03/31 09:53:47;;;;;;;7.20;2.00;;;11.20;99.90;;;;;;5083089;28;20095;-74
2023/03/31 09:56:44;;;;;;;2.83;1.50;;;11.40;99.90;;;;;;5080180;28;20100;-75
2023/03/31 09:59:18;;;;;;;4.65;1.67;;;11.60;99.90;;;;;;5084674;28;20051;-75
2023/03/31 10:01:46;;;;;;;4.40;1.65;;;11.70;99.90;;;;;;5081475;28;20058;-74
2023/03/31 10:04:31;;;;;;;5.15;1.80;;;11.60;99.90;;;;;;5084646;28;20055;-74
2023/03/31 10:06:58;;;;;;;4.68;1.90;;;11.60;99.90;;;;;;5078293;28;20096;-74
2023/03/31 10:09:31;;;;;;;6.00;2.10;;;11.80;99.90;;;;;;5085121;28;20048;-75
2023/03/31 10:12:03;;;;;;;4.28;1.52;;;11.90;99.90;;;;;;5088780;28;20043;-75
2023/03/31 10:14:39;;;;;;;5.97;1.80;;;11.90;99.90;;;;;;5087688;28;20041;-75
2023/03/31 10:17:06;;;;;;;4.93;1.20;;;11.80;99.90;;;;;;5053844;28;20044;-75
2023/03/31 10:19:38;;;;;;;5.03;1.77;;;11.80;99.90;;;;;;5071298;28;20037;-75
2023/03/31 10:22:13;;;;;;;7.75;1.70;;;11.90;99.90;;;;;;5083232;28;20609;-75
2023/03/31 10:24:41;;;;;;;4.60;1.50;;;11.80;99.90;;;;;;5077114;28;20375;-74
2023/03/31 10:27:19;;;;;;;3.78;1.70;;;11.80;99.90;;;;;;5082548;28;20045;-75
2023/03/31 10:29:45;;;;;;;3.72;1.40;;;11.70;99.90;;;;;;5057164;28;20040;-74
2023/03/31 10:32:27;;;;;;;4.40;1.30;;;11.60;99.90;;;;;;5058837;28;20514;-74
2023/03/31 10:34:55;;;;;;;2.65;1.10;;;11.50;99.90;;;;;;5075344;28;20039;-76
2023/03/31 10:37:23;;;;;;;4.80;1.40;;;11.40;99.90;;;;;;5052583;28;20040;-74
2023/03/31 10:40:20;;;;;;;2.08;1.10;;;11.40;99.90;;;;;;5055990;28;20555;-74
2023/03/31 10:42:57;;;;;;;3.30;1.20;;;11.50;99.90;;;;;;5070597;28;20096;-74
2023/03/31 10:45:26;;;;;;;3.20;1.25;;;11.50;99.90;;;;;;5071851;28;20057;-74
2023/03/31 10:47:59;;;;;;;2.70;1.10;;;11.40;99.90;;;;;;5075033;28;20068;-74
2023/03/31 10:50:30;;;;;;;3.13;1.20;;;11.70;99.90;;;;;;5057438;28;20045;-74
2023/03/31 10:53:09;;;;;;;4.80;1.42;;;11.60;99.90;;;;;;5078219;28;20045;-73
2023/03/31 10:55:59;;;;;;;3.25;1.02;;;11.90;99.90;;;;;;5071527;28;20075;-73
2023/03/31 10:58:25;;;;;;;2.85;1.10;;;11.80;99.90;;;;;;5074122;28;20074;-74
2023/03/31 11:01:02;;;;;;;5.60;1.27;;;12.10;99.90;;;;;;5073512;28;20048;-73
2023/03/31 11:03:28;;;;;;;4.00;1.40;;;12.00;99.90;;;;;;5079113;28;20036;-74
2023/03/31 11:05:56;;;;;;;4.45;1.55;;;12.00;99.90;;;;;;5068589;28;20498;-74
2023/03/31 11:08:47;;;;;;;4.72;1.27;;;12.20;99.90;;;;;;5080271;28;20040;-74
2023/03/31 11:11:40;;;;;;;3.35;1.48;;;12.10;99.90;;;;;;5073204;28;20051;-74
2023/03/31 11:14:08;;;;;;;5.38;1.10;;;12.20;99.90;;;;;;5072779;28;20222;-75
2023/03/31 11:16:37;;;;;;;3.05;1.30;;;12.50;99.90;;;;;;5085839;28;20040;-74
2023/03/31 11:19:10;;;;;;;4.32;1.40;;;12.50;99.90;;;;;;5074258;28;20063;-75
2023/03/31 11:22:01;;;;;;;2.83;1.20;;;12.50;99.90;;;;;;5074379;28;20044;-74
2023/03/31 11:24:41;;;;;;;5.43;1.35;;;12.80;99.90;;;;;;5076824;28;20065;-74
2023/03/31 11:27:12;;;;;;;5.93;1.65;;;12.90;99.90;;;;;;5082606;28;20058;-74
2023/03/31 11:29:58;;;;;;;4.13;1.42;;;13.10;99.90;;;;;;5079927;28;20052;-74
2023/03/31 11:32:45;;;;;;;6.32;1.63;;;13.10;99.90;;;;;;5078222;28;20688;-74
2023/03/31 11:35:37;;;;;;;6.03;1.75;;;13.30;99.90;;;;;;5061238;28;20098;-74
2023/03/31 11:38:10;;;;;;;4.85;1.35;;;13.50;99.90;;;;;;5077671;28;20105;-75
2023/03/31 11:40:46;;;;;;;5.45;1.70;;;13.50;99.90;;;;;;5079116;28;20083;-75
2023/03/31 11:43:14;;;;;;;4.63;1.50;;;13.60;99.90;;;;;;5074001;28;20496;-75
2023/03/31 11:45:52;;;;;;;5.38;1.33;;;13.50;99.90;;;;;;5079609;28;20113;-75
2023/03/31 11:48:37;;;;;;;4.72;1.67;;;13.60;99.90;;;;;;5080078;28;20041;-75
2023/03/31 11:51:10;;;;;;;4.40;1.75;;;13.50;99.90;;;;;;5078709;28;20052;-75
2023/03/31 11:53:40;;;;;;;5.32;1.73;;;13.50;99.90;;;;;;5062254;28;20325;-75
2023/03/31 11:56:08;;;;;;;4.50;1.45;;;13.60;99.90;;;;;;5078730;28;20116;-75
2023/03/31 11:58:44;;;;;;;5.90;1.65;;;13.50;99.90;;;;;;5077969;28;20121;-75
2023/03/31 12:01:15;;;;;;;4.28;1.70;;;13.50;99.90;;;;;;5079199;28;20115;-75
2023/03/31 12:04:16;;;;;;;5.45;1.70;;;13.20;99.90;;;;;;5082215;28;20056;-75
2023/03/31 12:06:46;;;;;;;4.40;1.40;;;13.00;99.90;;;;;;5060018;28;20494;-75
2023/03/31 12:09:31;;;;;;;4.82;1.38;;;12.80;99.90;;;;;;5083319;28;20395;-75
2023/03/31 12:12:06;;;;;;;2.53;1.02;;;12.50;99.90;;;;;;5056568;28;20070;-74
2023/03/31 12:14:52;;;;;;;5.32;1.40;;;12.50;99.90;;;;;;5077565;28;20048;-74
2023/03/31 12:17:21;;;;;;;3.60;1.10;;;12.30;99.90;;;;;;5078794;28;20539;-74
2023/03/31 12:19:56;;;;;;;2.03;0.90;;;12.30;99.90;;;;;;5076194;28;20033;-73
2023/03/31 12:22:31;;;;;;;2.90;0.85;;;12.30;99.90;;;;;;5086531;28;20048;-74
2023/03/31 12:24:57;;;;;;;1.77;0.80;;;12.20;99.90;;;;;;5087747;28;20361;-74
2023/03/31 12:27:29;;;;;;;1.25;0.70;;;12.20;99.90;;;;;;5079002;28;20055;-74
2023/03/31 12:30:01;;;;;;;2.60;1.10;;;12.10;99.90;;;;;;5082023;28;20079;-72
2023/03/31 12:32:35;;;;;;;2.70;1.10;;;12.10;99.90;;;;;;5077023;28;20036;-74
2023/03/31 12:35:16;;;;;;;5.30;1.65;;;12.20;99.90;;;;;;5077846;28;20043;-75
2023/03/31 12:38:14;;;;;;;5.30;1.40;;;12.20;99.90;;;;;;5079847;28;20117;-76
2023/03/31 12:41:21;;;;;;;4.13;1.50;;;12.30;99.90;;;;;;5074670;28;20067;-76
2023/03/31 12:44:15;;;;;;;2.72;1.40;;;12.50;99.90;;;;;;5085599;28;20043;-75
2023/03/31 12:46:41;;;;;;;3.90;1.40;;;12.60;99.90;;;;;;5064758;28;20526;-75
2023/03/31 12:49:44;;;;;;;6.45;1.80;;;12.70;99.90;;;;;;5083413;28;20075;-75
2023/03/31 12:52:50;;;;;;;3.65;1.25;;;12.90;99.90;;;;;;5065464;28;20048;-76
2023/03/31 12:55:58;;;;;;;5.75;1.60;;;13.30;99.90;;;;;;5076125;28;20490;-75
2023/03/31 12:58:25;;;;;;;6.05;1.80;;;13.50;99.90;;;;;;5076402;28;20086;-75
2023/03/31 13:01:00;;;;;;;4.55;1.67;;;13.60;99.90;;;;;;5086526;28;20075;-75
2023/03/31 13:03:35;;;;;;;7.28;2.20;;;13.50;99.90;;;;;;5060908;28;20212;-74
2023/03/31 13:06:05;;;;;;;4.85;1.80;;;13.60;99.90;;;;;;5077126;28;20039;-76
2023/03/31 13:08:50;;;;;;;8.70;2.10;;;13.70;99.90;;;;;;5084881;28;20570;-76
2023/03/31 13:11:33;;;;;;;6.57;1.70;;;13.70;99.90;;;;;;5087803;28;20048;-75
2023/03/31 13:14:20;;;;;;;4.22;1.40;;;13.70;99.90;;;;;;5071509;28;20072;-75
2023/03/31 13:16:47;;;;;;;4.43;1.48;;;13.60;99.90;;;;;;5082064;28;20040;-75